Wetterdaten: Woche 08.07.19 - 14.07.19 (KW28)
Datum Zeit Temp. Aussen Temp. o. S. +5cm Feuchte Auss Luftdruck Regen Sonnenschein Regendauer Solar Windben Empfang
08.07.2019 00:00 13,0 C 10,9 C 10,8 C 76 % 1017,9 hPa 0,0 l/m 0,00 h 0,00 h 0 W/m 0,6 km/h (0 Bft) 96,83 %
08.07.2019 01:00 11,9 C 9,7 C 9,7 C 79 % 1018,0 hPa 0,0 l/m 0,00 h 0,00 h 0 W/m 0,4 km/h (0 Bft) 98,86 %
08.07.2019 02:00 11,0 C 9,0 C 9,1 C 82 % 1018,1 hPa 0,0 l/m 0,00 h 0,00 h 0 W/m 0,6 km/h (0 Bft) 98,22 %
08.07.2019 03:00 10,1 C 8,4 C 8,4 C 85 % 1018,1 hPa 0,0 l/m 0,00 h 0,00 h 0 W/m 0,0 km/h (0 Bft) 96,87 %
08.07.2019 04:00 9,7 C 8,2 C 8,1 C 88 % 1018,2 hPa 0,0 l/m 0,00 h 0,00 h 0 W/m 0,0 km/h (0 Bft) 95,81 %
08.07.2019 05:00 9,6 C 9,4 C 9,4 C 90 % 1018,4 hPa 0,0 l/m 0,00 h 0,00 h 8 W/m 0,9 km/h (0 Bft) 98,29 %
08.07.2019 06:00 10,6 C 10,9 C 10,8 C 91 % 1018,8 hPa 0,0 l/m 0,00 h 0,00 h 28 W/m 1,4 km/h (1 Bft) 97,87 %
08.07.2019 07:00 11,6 C 12,5 C 12,1 C 90 % 1019,2 hPa 0,0 l/m 0,00 h 0,00 h 88 W/m 2,9 km/h (1 Bft) 96,29 %
08.07.2019 08:00 13,4 C 15,7 C 15,1 C 85 % 1019,3 hPa 0,0 l/m 0,00 h 0,00 h 143 W/m 7,9 km/h (2 Bft) 98,50 %
08.07.2019 09:00 15,8 C 17,7 C 16,8 C 75 % 1019,6 hPa 0,0 l/m 0,27 h 0,00 h 240 W/m 11,2 km/h (2 Bft) 97,86 %
08.07.2019 10:00 17,0 C 19,3 C 18,7 C 70 % 1019,7 hPa 0,0 l/m 0,37 h 0,00 h 295 W/m 11,0 km/h (2 Bft) 96,59 %
08.07.2019 11:00 16,8 C 18,1 C 17,5 C 69 % 1019,7 hPa 0,0 l/m 0,13 h 0,00 h 272 W/m 11,5 km/h (2 Bft) 96,23 %
08.07.2019 12:00 16,6 C 18,2 C 17,6 C 71 % 1019,8 hPa 0,0 l/m 0,30 h 0,00 h 342 W/m 14,1 km/h (3 Bft) 99,15 %
08.07.2019 13:00 17,5 C 17,6 C 17,3 C 68 % 1019,7 hPa 0,0 l/m 0,00 h 0,00 h 190 W/m 11,5 km/h (2 Bft) 98,72 %
08.07.2019 14:00 18,4 C 20,7 C 19,7 C 65 % 1019,6 hPa 0,0 l/m 0,57 h 0,00 h 445 W/m 12,5 km/h (3 Bft) 96,01 %
08.07.2019 15:00 19,8 C 21,6 C 20,3 C 60 % 1019,5 hPa 0,0 l/m 0,67 h 0,00 h 483 W/m 11,7 km/h (2 Bft) 97,30 %
08.07.2019 16:00 20,0 C 20,9 C 20,2 C 59 % 1019,5 hPa 0,0 l/m 0,57 h 0,00 h 417 W/m 14,0 km/h (3 Bft) 97,15 %
08.07.2019 17:00 19,0 C 19,2 C 18,9 C 62 % 1019,4 hPa 0,0 l/m 0,23 h 0,00 h 258 W/m 13,0 km/h (3 Bft) 98,37 %
08.07.2019 18:00 18,5 C 18,7 C 18,2 C 64 % 1019,3 hPa 0,0 l/m 0,23 h 0,00 h 206 W/m 11,3 km/h (2 Bft) 98,82 %
08.07.2019 19:00 18,2 C 17,8 C 17,3 C 65 % 1019,2 hPa 0,0 l/m 0,27 h 0,00 h 146 W/m 10,0 km/h (2 Bft) 95,30 %
08.07.2019 20:00 17,4 C 16,2 C 16,2 C 69 % 1019,5 hPa 0,0 l/m 0,00 h 0,00 h 54 W/m 11,0 km/h (2 Bft) 98,79 %
08.07.2019 21:00 16,0 C 14,3 C 14,4 C 72 % 1019,6 hPa 0,0 l/m 0,00 h 0,00 h 16 W/m 6,4 km/h (2 Bft) 99,00 %
08.07.2019 22:00 14,6 C 12,4 C 12,5 C 76 % 1020,1 hPa 0,0 l/m 0,00 h 0,00 h 0 W/m 1,6 km/h (1 Bft) 96,29 %
08.07.2019 23:00 13,2 C 10,8 C 10,8 C 78 % 1020,7 hPa 0,0 l/m 0,00 h 0,00 h 0 W/m 0,3 km/h (0 Bft) 98,50 %
09.07.2019 00:00 12,0 C 9,9 C 9,9 C 81 % 1021,0 hPa 0,0 l/m 0,00 h 0,00 h 0 W/m 0,2 km/h (0 Bft) 95,71 %
09.07.2019 01:00 11,0 C 8,9 C 8,9 C 83 % 1020,9 hPa 0,0 l/m 0,00 h 0,00 h 0 W/m 0,2 km/h (0 Bft) 97,58 %
09.07.2019 02:00 10,3 C 8,9 C 9,0 C 86 % 1020,8 hPa 0,0 l/m 0,00 h 0,00 h 0 W/m 0,4 km/h (0 Bft) 97,08 %
09.07.2019 03:00 10,4 C 10,2 C 10,2 C 90 % 1020,6 hPa 0,0 l/m 0,00 h 0,00 h 0 W/m 0,4 km/h (0 Bft) 99,80 %
09.07.2019 04:00 10,9 C 10,7 C 10,6 C 91 % 1020,5 hPa 0,0 l/m 0,00 h 0,00 h 0 W/m 1,8 km/h (1 Bft) 94,99 %
09.07.2019 05:00 11,4 C 11,0 C 10,9 C 90 % 1020,7 hPa 0,0 l/m 0,00 h 0,00 h 9 W/m 2,6 km/h (1 Bft) 98,39 %
09.07.2019 06:00 11,8 C 11,6 C 11,5 C 90 % 1021,1 hPa 0,0 l/m 0,00 h 0,00 h 33 W/m 1,4 km/h (1 Bft) 99,63 %
09.07.2019 07:00 12,6 C 13,4 C 12,8 C 90 % 1021,4 hPa 0,0 l/m 0,00 h 0,00 h 91 W/m 2,0 km/h (1 Bft) 95,57 %
09.07.2019 08:00 14,2 C 17,2 C 16,3 C 83 % 1021,6 hPa 0,0 l/m 0,00 h 0,00 h 179 W/m 5,8 km/h (2 Bft) 98,23 %
09.07.2019 09:00 17,1 C 23,3 C 24,2 C 70 % 1021,6 hPa 0,0 l/m 0,87 h 0,00 h 464 W/m 9,0 km/h (2 Bft) 98,49 %
09.07.2019 10:00 19,0 C 24,2 C 24,9 C 61 % 1021,5 hPa 0,0 l/m 0,80 h 0,00 h 585 W/m 8,5 km/h (2 Bft) 98,29 %
09.07.2019 11:00 18,8 C 21,6 C 21,2 C 62 % 1021,4 hPa 0,0 l/m 0,30 h 0,00 h 385 W/m 7,7 km/h (2 Bft) 97,05 %
09.07.2019 12:00 19,5 C 23,4 C 22,8 C 61 % 1021,3 hPa 0,0 l/m 0,53 h 0,00 h 559 W/m 10,8 km/h (2 Bft) 95,98 %
09.07.2019 13:00 22,0 C 28,1 C 28,6 C 53 % 1020,9 hPa 0,0 l/m 0,83 h 0,00 h 808 W/m 9,6 km/h (2 Bft) 98,68 %
09.07.2019 14:00 22,3 C 24,6 C 24,8 C 50 % 1020,7 hPa 0,0 l/m 0,47 h 0,00 h 591 W/m 9,9 km/h (2 Bft) 97,22 %
09.07.2019 15:00 22,4 C 24,0 C 22,5 C 49 % 1020,4 hPa 0,0 l/m 0,37 h 0,00 h 465 W/m 9,0 km/h (2 Bft) 98,97 %
09.07.2019 16:00 22,5 C 23,2 C 22,1 C 50 % 1020,3 hPa 0,0 l/m 0,53 h 0,00 h 457 W/m 8,8 km/h (2 Bft) 96,56 %
09.07.2019 17:00 24,0 C 24,0 C 22,9 C 46 % 1019,9 hPa 0,0 l/m 1,00 h 0,00 h 620 W/m 9,5 km/h (2 Bft) 96,56 %
09.07.2019 18:00 23,9 C 23,2 C 22,8 C 46 % 1019,5 hPa 0,0 l/m 1,00 h 0,00 h 450 W/m 11,1 km/h (2 Bft) 99,71 %
09.07.2019 19:00 22,0 C 20,7 C 19,4 C 49 % 1019,5 hPa 0,0 l/m 0,60 h 0,00 h 198 W/m 9,5 km/h (2 Bft) 96,49 %
09.07.2019 20:00 19,8 C 18,4 C 17,6 C 52 % 1019,5 hPa 0,0 l/m 0,00 h 0,00 h 47 W/m 8,6 km/h (2 Bft) 96,86 %
09.07.2019 21:00 18,4 C 16,3 C 15,9 C 56 % 1019,8 hPa 0,0 l/m 0,00 h 0,00 h 14 W/m 5,8 km/h (2 Bft) 99,57 %
09.07.2019 22:00 16,6 C 14,3 C 14,0 C 60 % 1020,5 hPa 0,0 l/m 0,00 h 0,00 h 0 W/m 3,8 km/h (1 Bft) 96,30 %
09.07.2019 23:00 15,3 C 13,9 C 13,4 C 66 % 1020,7 hPa 0,0 l/m 0,00 h 0,00 h 0 W/m 3,5 km/h (1 Bft) 98,72 %
10.07.2019 00:00 14,4 C 12,7 C 12,3 C 69 % 1020,9 hPa 0,0 l/m 0,00 h 0,00 h 0 W/m 2,9 km/h (1 Bft) 95,96 %
10.07.2019 01:00 13,5 C 11,7 C 11,4 C 72 % 1021,0 hPa 0,0 l/m 0,00 h 0,00 h 0 W/m 1,8 km/h (1 Bft) 98,57 %
10.07.2019 02:00 12,5 C 10,4 C 10,2 C 74 % 1020,9 hPa 0,0 l/m 0,00 h 0,00 h 0 W/m 0,8 km/h (0 Bft) 97,01 %
10.07.2019 03:00 11,4 C 9,2 C 9,1 C 77 % 1020,9 hPa 0,0 l/m 0,00 h 0,00 h 0 W/m 0,7 km/h (0 Bft) 99,57 %
10.07.2019 04:00 10,4 C 8,2 C 8,3 C 80 % 1020,9 hPa 0,0 l/m 0,00 h 0,00 h 0 W/m 0,2 km/h (0 Bft) 96,12 %
10.07.2019 05:00 9,6 C 7,8 C 7,8 C 83 % 1020,9 hPa 0,0 l/m 0,00 h 0,00 h 7 W/m 0,1 km/h (0 Bft) 95,73 %
10.07.2019 06:00 9,2 C 8,8 C 8,6 C 87 % 1020,9 hPa 0,0 l/m 0,00 h 0,00 h 25 W/m 0,0 km/h (0 Bft) 98,20 %
10.07.2019 07:00 10,0 C 11,6 C 10,9 C 91 % 1020,8 hPa 0,0 l/m 0,00 h 0,00 h 75 W/m 0,2 km/h (0 Bft) 99,00 %
10.07.2019 08:00 12,6 C 17,1 C 15,5 C 90 % 1020,7 hPa 0,0 l/m 0,00 h 0,00 h 113 W/m 2,3 km/h (1 Bft) 95,73 %
10.07.2019 09:00 16,0 C 20,5 C 19,5 C 76 % 1020,7 hPa 0,0 l/m 0,30 h 0,00 h 285 W/m 4,8 km/h (1 Bft) 97,13 %
10.07.2019 10:00 18,9 C 25,1 C 25,0 C 64 % 1020,6 hPa 0,0 l/m 0,93 h 0,00 h 534 W/m 5,7 km/h (1 Bft) 98,05 %
10.07.2019 11:00 20,8 C 27,7 C 27,2 C 53 % 1020,6 hPa 0,0 l/m 0,93 h 0,00 h 735 W/m 6,6 km/h (2 Bft) 97,79 %
10.07.2019 12:00 23,4 C 31,1 C 31,4 C 44 % 1020,3 hPa 0,0 l/m 1,00 h 0,00 h 893 W/m 6,6 km/h (2 Bft) 98,64 %
10.07.2019 13:00 25,2 C 30,8 C 31,2 C 37 % 1019,7 hPa 0,0 l/m 1,00 h 0,00 h 860 W/m 8,0 km/h (2 Bft) 96,94 %
10.07.2019 14:00 25,4 C 28,9 C 29,6 C 38 % 1019,3 hPa 0,0 l/m 1,00 h 0,00 h 792 W/m 9,0 km/h (2 Bft) 97,65 %
10.07.2019 15:00 25,5 C 28,0 C 25,9 C 42 % 1018,9 hPa 0,0 l/m 0,90 h 0,00 h 707 W/m 8,2 km/h (2 Bft) 96,60 %
10.07.2019 16:00 25,1 C 25,2 C 24,3 C 43 % 1018,5 hPa 0,0 l/m 0,50 h 0,10 h 337 W/m 8,4 km/h (2 Bft) 97,88 %
10.07.2019 17:00 24,1 C 24,2 C 23,3 C 45 % 1018,2 hPa 0,0 l/m 0,20 h 0,00 h 251 W/m 7,5 km/h (2 Bft) 97,72 %
10.07.2019 18:00 23,0 C 22,4 C 21,9 C 49 % 1018,0 hPa 0,0 l/m 0,13 h 0,00 h 146 W/m 8,4 km/h (2 Bft) 96,67 %
10.07.2019 19:00 21,2 C 18,5 C 18,1 C 60 % 1018,1 hPa 0,0 l/m 0,00 h 0,63 h 47 W/m 7,0 km/h (2 Bft) 98,93 %
10.07.2019 20:00 18,0 C 14,3 C 14,3 C 81 % 1018,1 hPa 0,8 l/m 0,00 h 0,82 h 22 W/m 1,5 km/h (1 Bft) 97,11 %
10.07.2019 21:00 16,4 C 13,9 C 13,9 C 87 % 1017,8 hPa 0,6 l/m 0,00 h 0,57 h 6 W/m 0,4 km/h (0 Bft) 96,85 %
10.07.2019 22:00 15,6 C 13,9 C 13,9 C 91 % 1017,7 hPa 0,6 l/m 0,00 h 0,47 h 0 W/m 0,1 km/h (0 Bft) 96,16 %
10.07.2019 23:00 15,2 C 13,5 C 13,5 C 93 % 1017,3 hPa 0,2 l/m 0,00 h 0,50 h 0 W/m 2,2 km/h (1 Bft) 98,79 %
11.07.2019 00:00 14,9 C 13,6 C 13,3 C 94 % 1016,9 hPa 0,2 l/m 0,00 h 0,10 h 0 W/m 1,7 km/h (1 Bft) 97,65 %
11.07.2019 01:00 15,0 C 13,9 C 13,4 C 95 % 1016,3 hPa 0,0 l/m 0,00 h 0,00 h 0 W/m 2,6 km/h (1 Bft) 97,01 %
11.07.2019 02:00 14,9 C 13,9 C 13,3 C 96 % 1015,8 hPa 0,0 l/m 0,00 h 0,20 h 0 W/m 4,9 km/h (1 Bft) 97,29 %
11.07.2019 03:00 14,8 C 13,9 C 13,3 C 96 % 1015,3 hPa 0,0 l/m 0,00 h 0,00 h 0 W/m 2,5 km/h (1 Bft) 97,29 %
11.07.2019 04:00 14,9 C 13,9 C 13,4 C 96 % 1014,7 hPa 0,0 l/m 0,00 h 0,20 h 0 W/m 1,3 km/h (1 Bft) 98,65 %
11.07.2019 05:00 15,1 C 13,9 C 13,7 C 96 % 1014,4 hPa 0,2 l/m 0,00 h 0,33 h 4 W/m 0,0 km/h (0 Bft) 96,30 %
11.07.2019 06:00 15,2 C 14,2 C 13,9 C 96 % 1014,1 hPa 0,0 l/m 0,00 h 0,00 h 18 W/m 2,0 km/h (1 Bft) 97,20 %
11.07.2019 07:00 15,7 C 15,3 C 14,5 C 95 % 1013,7 hPa 0,0 l/m 0,00 h 0,00 h 65 W/m 2,5 km/h (1 Bft) 99,15 %
11.07.2019 08:00 16,4 C 16,6 C 15,9 C 92 % 1013,5 hPa 0,0 l/m 0,10 h 0,00 h 97 W/m 10,3 km/h (2 Bft) 96,73 %
11.07.2019 09:00 17,7 C 18,8 C 18,2 C 87 % 1013,3 hPa 0,0 l/m 0,20 h 0,00 h 209 W/m 13,8 km/h (3 Bft) 96,93 %
11.07.2019 10:00 18,4 C 18,4 C 17,8 C 83 % 1013,2 hPa 0,0 l/m 0,00 h 0,00 h 139 W/m 10,1 km/h (2 Bft) 98,01 %
11.07.2019 11:00 18,8 C 19,2 C 18,5 C 83 % 1013,1 hPa 0,0 l/m 0,00 h 0,00 h 146 W/m 7,2 km/h (2 Bft) 97,86 %
11.07.2019 12:00 19,8 C 21,1 C 20,2 C 79 % 1012,8 hPa 0,0 l/m 0,00 h 0,00 h 228 W/m 8,1 km/h (2 Bft) 97,90 %
11.07.2019 13:00 21,8 C 24,3 C 23,2 C 73 % 1012,4 hPa 0,0 l/m 0,37 h 0,00 h 413 W/m 10,1 km/h (2 Bft) 96,37 %
11.07.2019 14:00 24,7 C 28,2 C 27,3 C 65 % 1011,9 hPa 0,0 l/m 0,63 h 0,00 h 615 W/m 11,7 km/h (2 Bft) 98,72 %
11.07.2019 15:00 25,9 C 27,0 C 25,8 C 59 % 1011,5 hPa 0,0 l/m 0,67 h 0,00 h 454 W/m 14,5 km/h (3 Bft) 96,87 %
11.07.2019 16:00 25,8 C 26,2 C 25,4 C 57 % 1011,2 hPa 0,0 l/m 0,57 h 0,00 h 416 W/m 14,0 km/h (3 Bft) 97,01 %
11.07.2019 17:00 26,5 C 26,3 C 25,5 C 52 % 1011,0 hPa 0,0 l/m 0,90 h 0,00 h 565 W/m 13,0 km/h (3 Bft) 99,50 %
11.07.2019 18:00 25,8 C 25,1 C 24,4 C 52 % 1011,0 hPa 0,0 l/m 0,60 h 0,00 h 288 W/m 13,3 km/h (3 Bft) 96,28 %
11.07.2019 19:00 24,6 C 23,6 C 23,0 C 57 % 1011,4 hPa 0,0 l/m 0,07 h 0,00 h 112 W/m 9,3 km/h (2 Bft) 97,94 %
11.07.2019 20:00 23,8 C 22,8 C 22,1 C 60 % 1011,5 hPa 0,0 l/m 0,00 h 0,00 h 64 W/m 8,5 km/h (2 Bft) 99,21 %
11.07.2019 21:00 22,7 C 20,8 C 20,0 C 64 % 1011,7 hPa 0,0 l/m 0,17 h 0,00 h 16 W/m 5,1 km/h (1 Bft) 99,34 %
11.07.2019 22:00 20,9 C 18,6 C 17,6 C 68 % 1012,1 hPa 0,0 l/m 0,00 h 0,00 h 0 W/m 0,5 km/h (0 Bft) 98,44 %
11.07.2019 23:00 19,4 C 16,9 C 16,0 C 73 % 1012,2 hPa 0,0 l/m 0,00 h 0,00 h 0 W/m 0,0 km/h (0 Bft) 98,22 %
12.07.2019 00:00 17,9 C 15,8 C 14,8 C 77 % 1012,1 hPa 0,0 l/m 0,00 h 0,00 h 0 W/m 0,0 km/h (0 Bft) 98,12 %
12.07.2019 01:00 16,8 C 15,2 C 14,2 C 81 % 1011,9 hPa 0,0 l/m 0,00 h 0,00 h 0 W/m 0,2 km/h (0 Bft) 96,23 %
12.07.2019 02:00 16,6 C 15,9 C 15,1 C 84 % 1011,7 hPa 0,0 l/m 0,00 h 0,00 h 0 W/m 1,2 km/h (1 Bft) 97,86 %
12.07.2019 03:00 16,5 C 14,8 C 14,0 C 84 % 1011,4 hPa 0,0 l/m 0,00 h 0,00 h 0 W/m 0,4 km/h (0 Bft) 96,80 %
12.07.2019 04:00 15,8 C 14,2 C 13,4 C 85 % 1011,3 hPa 0,0 l/m 0,00 h 0,00 h 0 W/m 0,0 km/h (0 Bft) 98,77 %
12.07.2019 05:00 15,3 C 13,6 C 12,9 C 86 % 1011,2 hPa 0,0 l/m 0,00 h 0,00 h 8 W/m 0,0 km/h (0 Bft) 95,02 %
12.07.2019 06:00 14,9 C 14,6 C 13,7 C 89 % 1011,0 hPa 0,0 l/m 0,00 h 0,00 h 31 W/m 0,2 km/h (0 Bft) 98,89 %
12.07.2019 07:00 15,5 C 17,2 C 15,8 C 92 % 1011,1 hPa 0,0 l/m 0,17 h 0,00 h 95 W/m 1,8 km/h (1 Bft) 99,50 %
12.07.2019 08:00 18,2 C 22,1 C 19,9 C 87 % 1011,4 hPa 0,0 l/m 0,03 h 0,00 h 160 W/m 4,2 km/h (1 Bft) 94,52 %
12.07.2019 09:00 20,7 C 23,0 C 21,6 C 77 % 1011,4 hPa 0,0 l/m 0,17 h 0,00 h 247 W/m 6,1 km/h (2 Bft) 99,29 %
12.07.2019 10:00 22,1 C 27,5 C 26,5 C 69 % 1011,1 hPa 0,0 l/m 0,73 h 0,00 h 542 W/m 7,7 km/h (2 Bft) 98,57 %
12.07.2019 11:00 24,0 C 27,0 C 26,4 C 60 % 1010,9 hPa 0,0 l/m 0,53 h 0,00 h 476 W/m 9,6 km/h (2 Bft) 96,29 %
12.07.2019 12:00 25,2 C 29,2 C 27,8 C 59 % 1010,6 hPa 0,0 l/m 0,70 h 0,00 h 507 W/m 8,5 km/h (2 Bft) 97,24 %
12.07.2019 13:00 26,9 C 31,3 C 31,1 C 55 % 1010,3 hPa 0,0 l/m 0,90 h 0,00 h 723 W/m 9,7 km/h (2 Bft) 98,08 %
12.07.2019 14:00 25,8 C 26,0 C 25,2 C 58 % 1010,5 hPa 0,0 l/m 0,20 h 0,00 h 312 W/m 12,4 km/h (3 Bft) 98,29 %
12.07.2019 15:00 22,8 C 20,7 C 21,1 C 69 % 1010,9 hPa 0,8 l/m 0,00 h 0,33 h 117 W/m 13,4 km/h (3 Bft) 95,52 %
12.07.2019 16:00 20,2 C 19,1 C 18,6 C 87 % 1011,0 hPa 0,0 l/m 0,63 h 0,20 h 411 W/m 9,9 km/h (2 Bft) 98,65 %
12.07.2019 17:00 21,4 C 21,1 C 19,7 C 76 % 1011,3 hPa 0,0 l/m 0,27 h 0,00 h 253 W/m 13,3 km/h (3 Bft) 99,43 %
12.07.2019 18:00 21,0 C 21,0 C 20,5 C 75 % 1011,4 hPa 0,0 l/m 0,37 h 0,00 h 205 W/m 12,7 km/h (3 Bft) 94,55 %
12.07.2019 19:00 20,2 C 19,5 C 18,9 C 74 % 1012,1 hPa 0,0 l/m 0,40 h 0,00 h 164 W/m 14,6 km/h (3 Bft) 98,72 %
12.07.2019 20:00 19,3 C 18,0 C 17,7 C 78 % 1012,6 hPa 2,2 l/m 0,00 h 0,17 h 30 W/m 6,8 km/h (2 Bft) 99,48 %
12.07.2019 21:00 17,7 C 14,8 C 15,0 C 88 % 1013,4 hPa 5,0 l/m 0,00 h 0,47 h 3 W/m 1,9 km/h (1 Bft) 94,07 %
12.07.2019 22:00 16,5 C 15,0 C 15,0 C 92 % 1014,2 hPa 0,0 l/m 0,00 h 0,07 h 0 W/m 0,3 km/h (0 Bft) 98,09 %
12.07.2019 23:00 16,3 C 14,7 C 14,7 C 94 % 1014,5 hPa 0,0 l/m 0,00 h 0,00 h 0 W/m 2,2 km/h (1 Bft) 98,86 %
13.07.2019 00:00 15,4 C 13,5 C 13,6 C 95 % 1014,7 hPa 0,0 l/m 0,00 h 0,00 h 0 W/m 1,1 km/h (1 Bft) 95,86 %
13.07.2019 01:00 14,6 C 13,0 C 12,9 C 95 % 1015,0 hPa 0,0 l/m 0,00 h 0,00 h 0 W/m 0,4 km/h (0 Bft) 97,31 %
13.07.2019 02:00 14,2 C 12,9 C 12,8 C 96 % 1015,3 hPa 0,0 l/m 0,00 h 0,00 h 0 W/m 0,2 km/h (0 Bft) 97,86 %
13.07.2019 03:00 14,2 C 13,1 C 12,8 C 96 % 1015,4 hPa 0,0 l/m 0,00 h 0,00 h 0 W/m 0,2 km/h (0 Bft) 96,76 %
13.07.2019 04:00 14,5 C 13,6 C 13,5 C 97 % 1015,4 hPa 0,0 l/m 0,00 h 0,00 h 0 W/m 2,4 km/h (1 Bft) 97,68 %
13.07.2019 05:00 14,9 C 13,9 C 13,9 C 98 % 1015,6 hPa 1,0 l/m 0,00 h 0,10 h 0 W/m 2,2 km/h (1 Bft) 95,80 %
13.07.2019 06:00 15,1 C 14,1 C 13,9 C 98 % 1016,0 hPa 0,6 l/m 0,00 h 0,10 h 16 W/m 1,9 km/h (1 Bft) 98,19 %
13.07.2019 07:00 15,5 C 14,9 C 14,6 C 98 % 1016,3 hPa 0,0 l/m 0,00 h 0,00 h 62 W/m 2,1 km/h (1 Bft) 98,75 %
13.07.2019 08:00 15,9 C 15,6 C 15,0 C 98 % 1016,8 hPa 0,0 l/m 0,00 h 0,00 h 101 W/m 3,8 km/h (1 Bft) 96,08 %
13.07.2019 09:00 16,3 C 16,6 C 15,5 C 98 % 1017,3 hPa 0,0 l/m 0,00 h 0,00 h 162 W/m 7,4 km/h (2 Bft) 97,58 %
13.07.2019 10:00 16,6 C 15,9 C 15,3 C 98 % 1017,7 hPa 0,6 l/m 0,00 h 0,43 h 92 W/m 6,0 km/h (2 Bft) 96,87 %
13.07.2019 11:00 16,6 C 16,6 C 15,9 C 97 % 1018,1 hPa 0,0 l/m 0,00 h 0,07 h 230 W/m 4,1 km/h (1 Bft) 97,61 %
13.07.2019 12:00 17,7 C 18,6 C 16,9 C 96 % 1018,1 hPa 0,0 l/m 0,17 h 0,00 h 278 W/m 3,2 km/h (1 Bft) 97,27 %
13.07.2019 13:00 18,8 C 21,1 C 18,5 C 91 % 1018,2 hPa 0,0 l/m 0,20 h 0,00 h 290 W/m 2,7 km/h (1 Bft) 97,53 %
13.07.2019 14:00 21,0 C 25,9 C 24,2 C 83 % 1017,9 hPa 0,0 l/m 0,73 h 0,00 h 587 W/m 7,9 km/h (2 Bft) 97,86 %
13.07.2019 15:00 23,1 C 26,4 C 22,4 C 74 % 1017,7 hPa 0,0 l/m 0,70 h 0,00 h 600 W/m 8,0 km/h (2 Bft) 97,79 %
13.07.2019 16:00 22,8 C 23,2 C 21,3 C 71 % 1017,7 hPa 0,0 l/m 0,33 h 0,00 h 322 W/m 9,3 km/h (2 Bft) 96,61 %
13.07.2019 17:00 21,9 C 21,8 C 20,7 C 73 % 1017,7 hPa 0,0 l/m 0,00 h 0,00 h 185 W/m 9,6 km/h (2 Bft) 97,56 %
13.07.2019 18:00 21,3 C 21,3 C 20,3 C 76 % 1017,7 hPa 0,0 l/m 0,20 h 0,00 h 180 W/m 10,2 km/h (2 Bft) 99,04 %
13.07.2019 19:00 20,4 C 19,5 C 19,0 C 77 % 1017,9 hPa 0,0 l/m 0,00 h 0,00 h 76 W/m 11,1 km/h (2 Bft) 97,42 %
13.07.2019 20:00 19,0 C 17,8 C 17,5 C 80 % 1018,3 hPa 0,0 l/m 0,00 h 0,00 h 28 W/m 10,9 km/h (2 Bft) 95,69 %
13.07.2019 21:00 18,0 C 16,9 C 16,6 C 82 % 1018,8 hPa 0,0 l/m 0,00 h 0,00 h 10 W/m 9,4 km/h (2 Bft) 99,74 %
13.07.2019 22:00 17,1 C 16,0 C 15,7 C 81 % 1019,4 hPa 0,0 l/m 0,00 h 0,00 h 0 W/m 10,7 km/h (2 Bft) 97,86 %
13.07.2019 23:00 16,3 C 15,6 C 15,0 C 84 % 1019,7 hPa 0,0 l/m 0,00 h 0,00 h 0 W/m 9,3 km/h (2 Bft) 95,47 %
14.07.2019 00:00 16,0 C 14,8 C 14,8 C 87 % 1019,8 hPa 0,0 l/m 0,00 h 0,00 h 0 W/m 7,5 km/h (2 Bft) 98,80 %
14.07.2019 01:00 15,5 C 14,4 C 14,4 C 88 % 1019,6 hPa 0,0 l/m 0,00 h 0,00 h 0 W/m 4,3 km/h (1 Bft) 97,34 %
14.07.2019 02:00 15,2 C 14,4 C 14,1 C 84 % 1019,6 hPa 0,0 l/m 0,00 h 0,00 h 0 W/m 7,6 km/h (2 Bft) 97,53 %
14.07.2019 03:00 15,1 C 14,4 C 13,9 C 81 % 1019,5 hPa 0,0 l/m 0,00 h 0,00 h 0 W/m 7,3 km/h (2 Bft) 97,61 %
14.07.2019 04:00 14,7 C 13,7 C 13,5 C 79 % 1019,5 hPa 0,0 l/m 0,00 h 0,00 h 0 W/m 8,9 km/h (2 Bft) 96,29 %
14.07.2019 05:00 13,9 C 12,5 C 12,4 C 79 % 1019,4 hPa 0,0 l/m 0,00 h 0,00 h 7 W/m 6,4 km/h (2 Bft) 98,12 %
14.07.2019 06:00 13,8 C 13,5 C 13,1 C 80 % 1019,4 hPa 0,0 l/m 0,00 h 0,00 h 21 W/m 4,8 km/h (1 Bft) 98,45 %
14.07.2019 07:00 14,2 C 14,1 C 13,6 C 80 % 1019,4 hPa 0,0 l/m 0,00 h 0,00 h 54 W/m 7,2 km/h (2 Bft) 94,66 %
14.07.2019 08:00 14,8 C 15,6 C 14,7 C 81 % 1019,7 hPa 0,0 l/m 0,00 h 0,00 h 125 W/m 5,3 km/h (1 Bft) 99,56 %
14.07.2019 09:00 16,1 C 17,6 C 16,7 C 77 % 1019,9 hPa 0,0 l/m 0,00 h 0,00 h 213 W/m 9,0 km/h (2 Bft) 98,23 %
14.07.2019 10:00 16,5 C 17,1 C 16,3 C 77 % 1020,1 hPa 0,0 l/m 0,00 h 0,00 h 176 W/m 7,9 km/h (2 Bft) 95,98 %
14.07.2019 11:00 17,2 C 18,5 C 17,6 C 76 % 1020,1 hPa 0,0 l/m 0,00 h 0,00 h 246 W/m 7,9 km/h (2 Bft) 98,82 %
14.07.2019 12:00 17,9 C 19,5 C 18,4 C 74 % 1020,2 hPa 0,0 l/m 0,07 h 0,00 h 309 W/m 8,8 km/h (2 Bft) 96,90 %
14.07.2019 13:00 18,9 C 20,9 C 19,8 C 71 % 1020,0 hPa 0,0 l/m 0,23 h 0,00 h 363 W/m 11,0 km/h (2 Bft) 98,23 %
14.07.2019 14:00 19,0 C 19,8 C 18,9 C 71 % 1019,9 hPa 0,0 l/m 0,00 h 0,00 h 252 W/m 9,5 km/h (2 Bft) 96,89 %
14.07.2019 15:00 19,1 C 19,9 C 19,0 C 71 % 1019,8 hPa 0,0 l/m 0,00 h 0,00 h 251 W/m 9,2 km/h (2 Bft) 96,70 %
14.07.2019 16:00 19,0 C 19,2 C 18,3 C 73 % 1019,6 hPa 0,0 l/m 0,00 h 0,00 h 172 W/m 7,9 km/h (2 Bft) 98,51 %
14.07.2019 17:00 18,9 C 19,4 C 18,7 C 74 % 1019,4 hPa 0,0 l/m 0,00 h 0,00 h 185 W/m 7,8 km/h (2 Bft) 97,21 %
14.07.2019 18:00 18,8 C 18,7 C 18,1 C 74 % 1019,2 hPa 0,0 l/m 0,00 h 0,00 h 113 W/m 7,7 km/h (2 Bft) 97,14 %
14.07.2019 19:00 18,5 C 17,7 C 17,4 C 75 % 1019,3 hPa 0,0 l/m 0,00 h 0,00 h 51 W/m 6,7 km/h (2 Bft) 97,44 %
14.07.2019 20:00 18,2 C 17,2 C 17,0 C 76 % 1019,4 hPa 0,0 l/m 0,00 h 0,00 h 24 W/m 6,2 km/h (2 Bft) 97,58 %
14.07.2019 21:00 17,4 C 16,3 C 16,0 C 78 % 1019,5 hPa 0,0 l/m 0,00 h 0,00 h 6 W/m 7,8 km/h (2 Bft) 97,65 %
14.07.2019 22:00 16,9 C 15,7 C 15,6 C 81 % 1019,7 hPa 0,0 l/m 0,00 h 0,00 h 0 W/m 4,1 km/h (1 Bft) 96,80 %
14.07.2019 23:00 16,4 C 15,6 C 15,2 C 81 % 1019,9 hPa 0,0 l/m 0,00 h 0,00 h 0 W/m 7,5 km/h (2 Bft) 97,87 %
Min-Datum _ 10.07.19 08.07.19 08.07.19 10.07.19 12.07.19 - - - - 08.07.19 09.07.19
_ Min-Zeit 06:04 04:42 04:34 13:52 13:18 - - - - 00:10 04:58
Minimum _ 9,2 C 7,8 C 7,8 C 33 % 1010,2 hPa - - - - 0,0 km/h (0 Bft) 89,36 %
Max-Datum _ 12.07.19 10.07.19 10.07.19 13.07.19 09.07.19 12.07.19 11.07.19 12.07.19 10.07.19 11.07.19 08.07.19
_ Max-Zeit 13:52 12:48 12:52 08:32 08:10 21:00 21:15 21:08 14:14 18:08 00:00
Maximum _ 27,5 C 34,4 C 36,1 C 99 % 1021,7 hPa 5,0 l/m 0,08 h 0,07 h 1165 W/m 38,6 km/h
W-NW (5 Bft)
100,00 %
Durchschnitt _ 17,6 C 17,7 C 17,2 C 76 % 1017,3 hPa #12,8 l/m #29:48 h #5:55 h 249 W/m 6,0 km/h (2 Bft) 97,54 %
© 2019 W. Hausmann